Terminal Aerodrome Forecast
Issued by NWS

Home | Current Version | Previous Version | Text Only | Print | Product List | Glossary On
Versions: 1 2 3 4 5 6 7 8 9 10 11 12
000
FTUS44 KLIX 311700
TAFMSY
TAF
KMSY 311735Z 3118/0118 10010KT P6SM SCT150
     FM010700 11008KT P6SM BKN050
     FM011100 13007KT P6SM OVC025
     FM011600 17008KT P6SM VCSH OVC030=

USA.gov is the U.S. government's official web portal to all federal, state and local government web resources and services.